createdAt,value
2022-09-23T00:01:09.472Z,6.60
2022-09-23T00:03:38.393Z,6.60
2022-09-23T00:06:08.393Z,6.60
2022-09-23T00:08:35.437Z,6.60
2022-09-23T00:11:10.535Z,6.70
2022-09-23T00:13:38.795Z,6.70
2022-09-23T00:16:08.271Z,6.70
2022-09-23T00:18:37.604Z,6.70
2022-09-23T00:21:05.695Z,6.70
2022-09-23T00:23:32.863Z,6.70
2022-09-23T00:26:01.302Z,6.70
2022-09-23T00:28:28.703Z,6.70
2022-09-23T00:30:55.407Z,6.70
2022-09-23T00:33:22.468Z,6.70
2022-09-23T00:35:49.841Z,6.60
2022-09-23T00:38:17.206Z,6.70
2022-09-23T00:40:46.120Z,6.70
2022-09-23T00:43:14.751Z,6.60
2022-09-23T00:45:46.811Z,6.60
2022-09-23T00:48:17.558Z,6.50
2022-09-23T00:50:49.228Z,6.50
2022-09-23T00:53:19.883Z,6.50
2022-09-23T00:55:50.018Z,6.50
2022-09-23T00:58:22.451Z,6.50
2022-09-23T01:00:49.360Z,6.50
2022-09-23T01:03:16.242Z,6.50
2022-09-23T01:05:47.063Z,6.40
2022-09-23T01:08:15.150Z,6.40
2022-09-23T01:11:36.003Z,6.30
2022-09-23T01:14:45.470Z,6.30
2022-09-23T01:17:51.217Z,6.30
2022-09-23T01:20:42.354Z,6.30
2022-09-23T01:23:30.195Z,6.20
2022-09-23T01:26:21.198Z,6.20
2022-09-23T01:29:15.124Z,6.20
2022-09-23T01:32:03.715Z,6.20
2022-09-23T01:34:55.591Z,6.20
2022-09-23T01:37:45.692Z,6.10
2022-09-23T01:40:25.323Z,6.00
2022-09-23T01:43:35.223Z,6.00
2022-09-23T01:46:06.754Z,5.90
2022-09-23T01:48:39.533Z,5.90
2022-09-23T01:51:19.090Z,5.90
2022-09-23T01:53:51.551Z,5.90
2022-09-23T01:56:23.173Z,5.80
2022-09-23T01:59:05.997Z,5.70
2022-09-23T02:01:47.681Z,5.70
2022-09-23T02:04:54.158Z,5.70
2022-09-23T02:07:51.382Z,5.70
2022-09-23T02:10:42.085Z,5.70
2022-09-23T02:13:24.461Z,5.60
2022-09-23T02:15:55.615Z,5.70
2022-09-23T02:18:30.234Z,5.70
2022-09-23T02:21:05.001Z,5.70
2022-09-23T02:23:40.826Z,5.70
2022-09-23T02:26:25.817Z,5.70
2022-09-23T02:29:30.477Z,5.70
2022-09-23T02:32:08.272Z,5.70
2022-09-23T02:35:04.041Z,5.70
2022-09-23T02:37:59.670Z,5.70
2022-09-23T02:40:29.446Z,5.70
2022-09-23T02:43:07.340Z,5.70
2022-09-23T02:45:34.703Z,5.60
2022-09-23T02:48:07.821Z,5.60
2022-09-23T02:50:38.601Z,5.60
2022-09-23T02:53:06.210Z,5.70
2022-09-23T02:55:33.175Z,5.60
2022-09-23T02:58:01.570Z,5.60
2022-09-23T03:00:50.073Z,5.50
2022-09-23T03:03:55.061Z,5.50
2022-09-23T03:06:28.561Z,5.50
2022-09-23T03:09:21.419Z,5.50
2022-09-23T03:11:56.888Z,5.40
2022-09-23T03:14:32.841Z,5.40
2022-09-23T03:17:08.600Z,5.40
2022-09-23T03:19:42.375Z,5.40
2022-09-23T03:22:14.109Z,5.40
2022-09-23T03:24:44.764Z,5.40
2022-09-23T03:27:20.066Z,5.40
2022-09-23T03:29:53.357Z,5.40
2022-09-23T03:32:24.662Z,5.50
2022-09-23T03:34:54.379Z,5.50
2022-09-23T03:37:35.956Z,5.60
2022-09-23T03:40:26.957Z,5.60
2022-09-23T03:42:56.118Z,5.70
2022-09-23T03:45:27.408Z,5.70
2022-09-23T03:47:54.075Z,5.60
2022-09-23T03:50:23.839Z,5.60
2022-09-23T03:52:50.851Z,5.50
2022-09-23T03:55:19.234Z,5.50
2022-09-23T03:57:48.530Z,5.50
2022-09-23T04:00:15.736Z,5.50
2022-09-23T04:02:42.934Z,5.50
2022-09-23T04:05:11.368Z,5.50
2022-09-23T04:07:38.374Z,5.50
2022-09-23T04:10:06.089Z,5.60
2022-09-23T04:12:32.752Z,5.60
2022-09-23T04:15:00.085Z,5.70
2022-09-23T04:17:26.818Z,5.70
2022-09-23T04:19:53.442Z,5.60
2022-09-23T04:22:20.320Z,5.60
2022-09-23T04:24:47.000Z,5.50
2022-09-23T04:27:13.666Z,5.50
2022-09-23T04:29:40.417Z,5.40
2022-09-23T04:32:07.345Z,5.40
2022-09-23T04:34:33.989Z,5.30
2022-09-23T04:37:00.659Z,5.30
2022-09-23T04:39:27.442Z,5.30
2022-09-23T04:41:54.096Z,5.30
2022-09-23T04:44:21.240Z,5.30
2022-09-23T04:46:48.330Z,5.40
2022-09-23T04:49:16.222Z,5.50
2022-09-23T04:51:43.594Z,5.40
2022-09-23T04:54:14.435Z,5.50
2022-09-23T04:56:41.226Z,5.40
2022-09-23T04:59:08.706Z,5.40
2022-09-23T05:01:36.571Z,5.50
2022-09-23T05:04:06.877Z,5.50
2022-09-23T05:06:34.969Z,5.40
2022-09-23T05:09:03.059Z,5.40
2022-09-23T05:11:31.573Z,5.40
2022-09-23T05:13:58.606Z,5.40
2022-09-23T05:16:26.698Z,5.40
2022-09-23T05:18:54.049Z,5.40
2022-09-23T05:21:27.646Z,5.40
2022-09-23T05:23:58.731Z,5.30
2022-09-23T05:26:27.848Z,5.40
2022-09-23T05:28:54.728Z,5.40
2022-09-23T05:31:24.016Z,5.50
2022-09-23T05:33:56.851Z,5.60
2022-09-23T05:36:24.944Z,5.70
2022-09-23T05:38:52.579Z,5.80
2022-09-23T05:41:23.048Z,5.90
2022-09-23T05:43:51.876Z,6.00
2022-09-23T05:46:24.287Z,6.10
2022-09-23T05:48:51.792Z,6.30
2022-09-23T05:51:20.966Z,6.40
2022-09-23T05:53:48.799Z,6.50
2022-09-23T05:56:20.337Z,6.60
2022-09-23T05:58:50.247Z,6.70
2022-09-23T06:01:24.767Z,6.80
2022-09-23T06:03:52.662Z,6.90
2022-09-23T06:06:37.730Z,7.10
2022-09-23T06:09:05.650Z,7.20
2022-09-23T06:11:36.817Z,7.40
2022-09-23T06:14:04.407Z,7.50
2022-09-23T06:16:33.737Z,7.60
2022-09-23T06:19:07.328Z,7.80
2022-09-23T06:21:40.303Z,8.00
2022-09-23T06:24:07.945Z,8.10
2022-09-23T06:26:37.465Z,8.10
2022-09-23T06:29:10.063Z,8.00
2022-09-23T06:31:37.024Z,8.00
2022-09-23T06:34:11.587Z,8.00
2022-09-23T06:36:44.565Z,8.10
2022-09-23T06:39:16.016Z,8.20
2022-09-23T06:41:43.982Z,8.30
2022-09-23T06:44:10.957Z,8.40
2022-09-23T06:46:37.800Z,8.60
2022-09-23T06:49:04.593Z,8.80
2022-09-23T06:51:31.272Z,8.90
2022-09-23T06:53:58.127Z,9.00
2022-09-23T06:56:24.849Z,9.10
2022-09-23T06:58:52.672Z,9.20
2022-09-23T07:01:19.764Z,9.40
2022-09-23T07:03:48.223Z,9.60
2022-09-23T07:06:15.349Z,9.80
2022-09-23T07:08:51.236Z,9.90
2022-09-23T07:11:22.262Z,10.00
2022-09-23T07:13:48.895Z,10.20
2022-09-23T07:16:15.752Z,10.50
2022-09-23T07:18:42.699Z,10.70
2022-09-23T07:21:15.579Z,10.90
2022-09-23T07:23:50.339Z,11.10
2022-09-23T07:26:22.425Z,11.30
2022-09-23T07:28:56.657Z,11.10
2022-09-23T07:31:36.311Z,10.90
2022-09-23T07:34:06.903Z,10.70
2022-09-23T07:36:33.804Z,10.70
2022-09-23T07:39:06.298Z,10.90
2022-09-23T07:41:34.050Z,11.10
2022-09-23T07:44:01.444Z,11.40
2022-09-23T07:46:34.007Z,11.60
2022-09-23T07:49:02.995Z,11.90
2022-09-23T07:51:35.981Z,12.00
2022-09-23T07:54:10.282Z,12.20
2022-09-23T07:56:37.731Z,12.50
2022-09-23T07:59:05.725Z,12.70
2022-09-23T08:01:33.740Z,13.00
2022-09-23T08:04:07.828Z,13.40
2022-09-23T08:06:34.819Z,13.90
2022-09-23T08:09:02.012Z,14.20
2022-09-23T08:11:28.740Z,14.30
2022-09-23T08:13:58.561Z,14.70
2022-09-23T08:16:25.696Z,15.00
2022-09-23T08:18:52.434Z,15.60
2022-09-23T08:21:22.619Z,16.10
2022-09-23T08:23:52.255Z,16.40
2022-09-23T08:26:22.419Z,16.20
2022-09-23T08:28:50.434Z,16.20
2022-09-23T08:31:17.244Z,16.40
2022-09-23T08:33:44.366Z,16.70
2022-09-23T08:36:11.144Z,16.70
2022-09-23T08:38:40.769Z,16.70
2022-09-23T09:14:49.961Z,16.90
2022-09-23T09:17:46.881Z,17.30
2022-09-23T09:20:42.648Z,17.70
2022-09-23T09:23:21.589Z,18.00
2022-09-23T09:25:56.430Z,18.20
2022-09-23T09:28:48.395Z,17.90
2022-09-23T09:31:36.061Z,17.60
2022-09-23T09:34:14.065Z,17.50
2022-09-23T09:37:07.291Z,17.70
2022-09-23T09:39:37.124Z,18.20
2022-09-23T09:42:06.449Z,18.80
2022-09-23T09:47:47.296Z,19.20
2022-09-23T09:50:38.502Z,19.00
2022-09-23T09:53:23.825Z,19.20
2022-09-23T09:56:04.339Z,19.20
2022-09-23T09:59:01.479Z,19.40
2022-09-23T10:01:34.047Z,19.30
2022-09-23T10:04:24.829Z,19.30
2022-09-23T10:07:05.700Z,19.10
2022-09-23T10:09:37.499Z,18.40
2022-09-23T10:12:15.678Z,18.30
2022-09-23T10:14:43.099Z,18.40
2022-09-23T10:17:20.617Z,18.20
2022-09-23T10:20:00.206Z,18.50
2022-09-23T10:22:32.941Z,19.00
2022-09-23T10:25:08.367Z,19.40
2022-09-23T10:27:36.736Z,19.00
2022-09-23T10:30:22.742Z,19.70
2022-09-23T10:32:51.396Z,19.50
2022-09-23T10:35:24.360Z,19.50
2022-09-23T10:41:01.684Z,20.60
2022-09-23T10:44:22.370Z,21.00
2022-09-23T10:47:00.903Z,21.20
2022-09-23T10:49:40.455Z,21.30
2022-09-23T10:52:25.646Z,21.00
2022-09-23T10:55:03.514Z,20.70
2022-09-23T10:57:47.959Z,20.60
2022-09-23T11:00:51.762Z,21.10
2022-09-23T11:03:50.890Z,21.60
2022-09-23T11:06:25.140Z,21.80
2022-09-23T11:08:55.583Z,21.20
2022-09-23T11:12:05.763Z,21.80
2022-09-23T11:14:57.183Z,22.00
2022-09-23T11:17:50.542Z,22.00
2022-09-23T11:20:41.342Z,22.30
2022-09-23T11:23:13.586Z,22.60
2022-09-23T11:25:54.293Z,23.40
2022-09-23T11:28:55.046Z,23.40
2022-09-23T11:31:36.368Z,23.50
2022-09-23T11:34:11.567Z,22.60
2022-09-23T11:36:43.425Z,22.50
2022-09-23T11:39:36.546Z,22.90
2022-09-23T11:42:06.591Z,23.00
2022-09-23T11:44:39.553Z,23.10
2022-09-23T11:47:39.941Z,23.10
2022-09-23T11:50:29.565Z,23.20
2022-09-23T11:53:28.853Z,22.50
2022-09-23T11:56:12.355Z,21.80
2022-09-23T11:58:59.861Z,21.50
2022-09-23T12:01:37.652Z,21.40
2022-09-23T12:04:52.542Z,20.90
2022-09-23T12:07:39.500Z,21.10
2022-09-23T12:10:08.455Z,20.90
2022-09-23T12:13:04.977Z,21.00
2022-09-23T12:15:55.307Z,21.60
2022-09-23T12:19:04.509Z,21.30
2022-09-23T12:21:59.975Z,21.50
2022-09-23T12:24:54.119Z,21.10
2022-09-23T12:27:46.146Z,21.40
2022-09-23T12:30:17.395Z,21.10
2022-09-23T12:32:47.153Z,20.60
2022-09-23T12:35:44.228Z,20.60
2022-09-23T12:38:33.638Z,20.90
2022-09-23T12:41:00.865Z,21.10
2022-09-23T12:43:32.964Z,21.30
2022-09-23T12:46:25.632Z,21.70
2022-09-23T12:49:00.591Z,21.90
2022-09-23T12:51:37.269Z,22.00
2022-09-23T12:54:03.897Z,21.80
2022-09-23T12:56:36.273Z,21.80
2022-09-23T12:59:29.457Z,21.90
2022-09-23T13:01:57.377Z,22.10
2022-09-23T13:05:01.898Z,22.30
2022-09-23T13:07:34.152Z,22.60
2022-09-23T13:10:07.436Z,22.60
2022-09-23T13:12:39.404Z,21.90
2022-09-23T13:15:28.621Z,21.50
2022-09-23T13:18:21.323Z,21.90
2022-09-23T13:20:52.867Z,21.90
2022-09-23T13:23:22.394Z,21.80
2022-09-23T13:26:01.764Z,21.60
2022-09-23T13:28:41.647Z,21.20
2022-09-23T13:31:15.999Z,20.90
2022-09-23T13:33:53.019Z,20.30
2022-09-23T13:36:21.094Z,19.90
2022-09-23T13:38:48.302Z,19.80
2022-09-23T13:41:20.688Z,19.80
2022-09-23T13:43:53.951Z,19.70
2022-09-23T13:46:24.605Z,19.70
2022-09-23T13:48:54.607Z,19.60
2022-09-23T13:51:32.957Z,19.60
2022-09-23T13:54:01.496Z,20.10
2022-09-23T13:56:35.999Z,21.10
2022-09-23T13:59:24.927Z,22.30
2022-09-23T14:02:05.190Z,23.00
2022-09-23T14:04:31.907Z,23.50
2022-09-23T14:06:58.685Z,23.60
2022-09-23T14:09:28.526Z,23.70
2022-09-23T14:11:58.966Z,23.40
2022-09-23T14:14:27.949Z,22.60
2022-09-23T14:16:55.970Z,22.60
2022-09-23T14:19:27.345Z,22.60
2022-09-23T14:21:58.338Z,22.60
2022-09-23T14:24:34.302Z,22.50
2022-09-23T14:27:06.721Z,22.30
2022-09-23T14:29:39.521Z,22.90
2022-09-23T14:32:22.593Z,24.00
2022-09-23T14:35:01.317Z,24.90
2022-09-23T14:38:06.766Z,24.90
2022-09-23T14:40:49.004Z,24.60
2022-09-23T14:43:29.000Z,24.50
2022-09-23T14:45:59.559Z,24.20
2022-09-23T14:48:34.978Z,24.60
2022-09-23T14:51:04.267Z,24.80
2022-09-23T14:53:43.585Z,24.10
2022-09-23T14:56:22.160Z,24.20
2022-09-23T14:59:02.249Z,23.90
2022-09-23T15:01:32.364Z,23.10
2022-09-23T15:04:12.525Z,22.50
2022-09-23T15:06:44.098Z,21.70
2022-09-23T15:09:42.176Z,21.60
2022-09-23T15:12:20.568Z,21.80
2022-09-23T15:14:53.769Z,21.80
2022-09-23T15:17:23.575Z,22.60
2022-09-23T15:20:16.340Z,23.30
2022-09-23T15:22:45.782Z,23.10
2022-09-23T15:25:35.549Z,23.30
2022-09-23T15:28:17.646Z,23.40
2022-09-23T15:30:45.272Z,23.30
2022-09-23T15:33:17.762Z,22.80
2022-09-23T15:35:49.218Z,22.20
2022-09-23T15:38:17.560Z,21.50
2022-09-23T15:40:44.369Z,21.10
2022-09-23T15:43:23.224Z,20.80
2022-09-23T15:45:53.290Z,20.40
2022-09-23T15:48:24.124Z,20.00
2022-09-23T15:50:52.027Z,19.80
2022-09-23T15:53:21.922Z,19.50
2022-09-23T15:55:52.077Z,19.30
2022-09-23T15:58:20.453Z,19.10
2022-09-23T16:00:55.953Z,18.90
2022-09-23T16:03:28.634Z,18.60
2022-09-23T16:05:59.954Z,18.50
2022-09-23T16:08:39.352Z,18.30
2022-09-23T16:11:06.828Z,18.10
2022-09-23T16:13:33.468Z,18.00
2022-09-23T16:16:00.170Z,17.90
2022-09-23T16:18:26.941Z,17.80
2022-09-23T16:20:54.693Z,17.70
2022-09-23T16:23:39.712Z,17.60
2022-09-23T16:26:43.944Z,17.40
2022-09-23T16:29:11.531Z,17.20
2022-09-23T16:31:38.899Z,17.00
2022-09-23T16:34:05.694Z,16.80
2022-09-23T16:36:41.750Z,16.60
2022-09-23T16:39:12.515Z,16.50
2022-09-23T16:41:39.614Z,16.30
2022-09-23T16:44:08.216Z,16.20
2022-09-23T16:46:35.436Z,16.00
2022-09-23T16:49:02.855Z,15.90
2022-09-23T16:51:37.926Z,15.80
2022-09-23T16:54:12.208Z,15.70
2022-09-23T16:56:45.047Z,15.60
2022-09-23T16:59:13.004Z,15.50
2022-09-23T17:02:01.303Z,15.40
2022-09-23T17:04:28.037Z,15.30
2022-09-23T17:06:55.898Z,15.20
2022-09-23T17:09:25.581Z,15.10
2022-09-23T17:12:11.289Z,14.90
2022-09-23T17:14:37.923Z,14.70
2022-09-23T17:17:04.719Z,14.70
2022-09-23T17:19:31.677Z,14.60
2022-09-23T17:22:00.383Z,14.60
2022-09-23T17:24:27.035Z,14.50
2022-09-23T17:26:53.773Z,14.40
2022-09-23T17:29:20.611Z,14.20
2022-09-23T17:31:47.371Z,14.10
2022-09-23T17:34:14.087Z,13.90
2022-09-23T17:36:41.042Z,13.80
2022-09-23T17:39:07.843Z,13.70
2022-09-23T17:41:34.637Z,13.60
2022-09-23T17:44:01.606Z,13.50
2022-09-23T17:46:30.099Z,13.50
2022-09-23T17:48:57.183Z,13.40
2022-09-23T17:51:25.379Z,13.40
2022-09-23T17:53:52.535Z,13.40
2022-09-23T17:56:21.637Z,13.30
2022-09-23T17:58:49.697Z,13.30
2022-09-23T18:01:19.477Z,13.20
2022-09-23T18:03:47.264Z,13.10
2022-09-23T18:06:21.474Z,13.00
2022-09-23T18:08:49.714Z,12.90
2022-09-23T18:11:23.333Z,12.90
2022-09-23T18:14:01.363Z,12.90
2022-09-23T18:16:30.589Z,12.80
2022-09-23T18:19:00.320Z,12.80
2022-09-23T18:21:32.529Z,12.80
2022-09-23T18:24:21.681Z,12.70
2022-09-23T18:26:49.610Z,12.70
2022-09-23T18:29:16.758Z,12.60
2022-09-23T18:31:45.087Z,12.50
2022-09-23T18:34:14.163Z,12.50
2022-09-23T18:36:41.046Z,12.50
2022-09-23T18:39:07.880Z,12.50
2022-09-23T18:41:35.150Z,12.50
2022-09-23T18:44:02.265Z,12.50
2022-09-23T18:46:32.250Z,12.40
2022-09-23T18:49:17.956Z,12.30
2022-09-23T18:51:56.526Z,12.20
2022-09-23T18:54:28.013Z,12.20
2022-09-23T18:56:59.161Z,12.10
2022-09-23T18:59:28.935Z,12.00
2022-09-23T19:01:56.750Z,12.00
2022-09-23T19:04:27.242Z,11.90
2022-09-23T19:06:57.912Z,11.80
2022-09-23T19:09:24.913Z,11.80
2022-09-23T19:11:52.645Z,11.70
2022-09-23T19:14:19.578Z,11.70
2022-09-23T19:16:48.882Z,11.60
2022-09-23T19:19:15.631Z,11.50
2022-09-23T19:21:42.354Z,11.50
2022-09-23T19:24:14.277Z,11.40
2022-09-23T19:26:41.326Z,11.40
2022-09-23T19:29:13.117Z,11.40
2022-09-23T19:31:41.145Z,11.30
2022-09-23T19:34:23.747Z,11.30
2022-09-23T19:36:50.613Z,11.30
2022-09-23T19:39:28.532Z,11.30
2022-09-23T19:41:56.099Z,11.30
2022-09-23T19:44:25.061Z,11.30
2022-09-23T19:46:56.359Z,11.20
2022-09-23T19:49:28.159Z,11.20
2022-09-23T19:51:57.909Z,11.10
2022-09-23T19:54:27.146Z,11.00
2022-09-23T19:56:54.359Z,10.90
2022-09-23T19:59:28.541Z,10.80
2022-09-23T20:01:55.316Z,10.70
2022-09-23T20:04:21.995Z,10.60
2022-09-23T20:06:51.617Z,10.50
2022-09-23T20:09:21.215Z,10.40
2022-09-23T20:11:47.944Z,10.30
2022-09-23T20:14:15.131Z,10.30
2022-09-23T20:16:41.893Z,10.30
2022-09-23T20:19:12.396Z,10.40
2022-09-23T20:21:39.138Z,10.30
2022-09-23T20:24:06.930Z,10.40
2022-09-23T20:26:52.737Z,10.40
2022-09-23T20:29:19.381Z,10.40
2022-09-23T20:31:48.282Z,10.50
2022-09-23T20:34:15.126Z,10.50
2022-09-23T20:36:42.445Z,10.50
2022-09-23T20:39:12.356Z,10.40
2022-09-23T20:41:40.072Z,10.40
2022-09-23T20:44:12.418Z,10.40
2022-09-23T20:46:48.314Z,10.40
2022-09-23T20:49:19.223Z,10.30
2022-09-23T20:51:47.961Z,10.20
2022-09-23T20:54:15.911Z,10.20
2022-09-23T20:56:42.561Z,10.10
2022-09-23T20:59:13.364Z,9.90
2022-09-23T21:01:40.767Z,9.90
2022-09-23T21:04:09.615Z,9.80
2022-09-23T21:06:37.311Z,9.60
2022-09-23T21:09:07.559Z,9.60
2022-09-23T21:11:34.281Z,9.50
2022-09-23T21:14:01.499Z,9.40
2022-09-23T21:16:28.788Z,9.40
2022-09-23T21:18:58.517Z,9.30
2022-09-23T21:21:28.023Z,9.30
2022-09-23T21:23:56.486Z,9.20
2022-09-23T21:26:31.022Z,9.30
2022-09-23T21:29:00.980Z,9.30
2022-09-23T21:31:35.916Z,9.40
2022-09-23T21:34:06.779Z,9.40
2022-09-23T21:36:41.412Z,9.50
2022-09-23T21:39:10.302Z,9.50
2022-09-23T21:41:37.465Z,9.50
2022-09-23T21:44:04.764Z,9.50
2022-09-23T21:46:33.754Z,9.60
2022-09-23T21:49:03.477Z,9.50
2022-09-23T21:51:37.551Z,9.60
2022-09-23T21:54:05.592Z,9.60
2022-09-23T21:56:35.186Z,9.50
2022-09-23T21:59:02.649Z,9.50
2022-09-23T22:01:37.257Z,9.50
2022-09-23T22:04:13.610Z,9.50
2022-09-23T22:06:42.759Z,9.50
2022-09-23T22:09:14.178Z,9.50
2022-09-23T22:12:00.549Z,9.50
2022-09-23T22:14:27.773Z,9.50
2022-09-23T22:16:57.576Z,9.50
2022-09-23T22:19:26.801Z,9.50
2022-09-23T22:21:55.774Z,9.50
2022-09-23T22:24:25.455Z,9.50
2022-09-23T22:26:52.261Z,9.60
2022-09-23T22:29:37.899Z,9.60
2022-09-23T22:32:28.363Z,9.70
2022-09-23T22:34:55.499Z,9.70
2022-09-23T22:37:27.190Z,9.70
2022-09-23T22:39:54.322Z,9.70
2022-09-23T22:42:22.180Z,9.70
2022-09-23T22:44:49.339Z,9.70
2022-09-23T22:47:17.960Z,9.70
2022-09-23T22:49:46.162Z,9.60
2022-09-23T22:52:14.951Z,9.60
2022-09-23T22:54:41.847Z,9.50
2022-09-23T22:57:09.094Z,9.40
2022-09-23T22:59:38.907Z,9.50
2022-09-23T23:02:08.341Z,9.40
2022-09-23T23:04:37.106Z,9.40
2022-09-23T23:07:04.293Z,9.40
2022-09-23T23:09:31.286Z,9.40
2022-09-23T23:11:57.938Z,9.40
2022-09-23T23:14:26.316Z,9.30
2022-09-23T23:16:53.534Z,9.20
2022-09-23T23:19:20.289Z,9.20
2022-09-23T23:21:50.895Z,9.10
2022-09-23T23:24:21.341Z,9.10
2022-09-23T23:26:48.876Z,9.00
2022-09-23T23:29:17.645Z,9.00
2022-09-23T23:31:52.298Z,9.00
2022-09-23T23:34:22.605Z,8.90
2022-09-23T23:36:56.461Z,9.00
2022-09-23T23:39:24.809Z,8.90
2022-09-23T23:41:56.038Z,8.80
2022-09-23T23:44:24.570Z,8.80
2022-09-23T23:46:51.753Z,8.90
2022-09-23T23:49:18.581Z,8.90
2022-09-23T23:51:47.592Z,8.80
2022-09-23T23:54:15.180Z,8.80
2022-09-23T23:56:45.110Z,8.70
2022-09-23T23:59:14.927Z,8.70
